createdAt,value
2024-02-24T00:00:17.120Z,77.15
2024-02-24T00:03:21.373Z,77.68
2024-02-24T00:06:25.117Z,76.71
2024-02-24T00:09:28.837Z,76.72
2024-02-24T00:12:31.136Z,76.63
2024-02-24T00:15:33.835Z,76.79
2024-02-24T00:18:36.361Z,76.32
2024-02-24T00:21:39.006Z,75.98
2024-02-24T00:24:41.413Z,75.60
2024-02-24T00:27:44.100Z,76.27
2024-02-24T00:30:46.653Z,75.50
2024-02-24T00:33:49.424Z,75.54
2024-02-24T00:36:51.763Z,75.26
2024-02-24T00:39:54.473Z,76.34
2024-02-24T00:42:56.833Z,76.01
2024-02-24T00:46:00.151Z,75.58
2024-02-24T00:49:02.768Z,75.07
2024-02-24T00:52:05.685Z,74.78
2024-02-24T00:55:08.713Z,74.77
2024-02-24T00:58:12.217Z,74.92
2024-02-24T01:01:14.683Z,76.33
2024-02-24T01:04:21.384Z,77.45
2024-02-24T01:07:25.716Z,77.29
2024-02-24T01:10:30.015Z,77.46
2024-02-24T01:13:32.497Z,79.14
2024-02-24T01:16:35.316Z,78.32
2024-02-24T01:19:38.184Z,78.83
2024-02-24T01:22:40.971Z,78.85
2024-02-24T01:25:45.424Z,78.00
2024-02-24T01:28:49.354Z,77.03
2024-02-24T01:31:51.668Z,74.83
2024-02-24T01:34:54.458Z,75.25
2024-02-24T01:37:56.951Z,74.51
2024-02-24T01:40:59.561Z,74.77
2024-02-24T01:44:01.961Z,74.40
2024-02-24T01:47:04.784Z,74.49
2024-02-24T01:50:08.323Z,74.17
2024-02-24T01:53:11.585Z,73.66
2024-02-24T01:56:14.763Z,73.55
2024-02-24T01:59:18.476Z,72.35
2024-02-24T02:02:20.977Z,72.83
2024-02-24T02:05:23.787Z,72.65
2024-02-24T02:08:26.258Z,73.38
2024-02-24T02:11:29.081Z,73.51
2024-02-24T02:14:31.585Z,73.68
2024-02-24T02:17:34.576Z,73.56
2024-02-24T02:20:37.265Z,74.68
2024-02-24T02:23:40.009Z,73.63
2024-02-24T02:26:42.498Z,72.99
2024-02-24T02:29:45.552Z,73.47
2024-02-24T02:32:48.074Z,73.25
2024-02-24T02:35:51.746Z,73.16
2024-02-24T02:38:54.118Z,73.62
2024-02-24T02:41:56.840Z,73.38
2024-02-24T02:44:59.212Z,74.11
2024-02-24T02:48:02.083Z,74.50
2024-02-24T02:51:04.898Z,76.05
2024-02-24T02:54:07.564Z,76.92
2024-02-24T02:57:09.958Z,79.18
2024-02-24T03:00:13.241Z,79.92
2024-02-24T03:03:15.877Z,80.95
2024-02-24T03:06:19.648Z,81.69
2024-02-24T03:09:22.053Z,80.57
2024-02-24T03:12:24.925Z,81.88
2024-02-24T03:15:27.403Z,84.49
2024-02-24T03:18:30.139Z,83.81
2024-02-24T03:21:33.671Z,82.58
2024-02-24T03:24:36.457Z,82.14
2024-02-24T03:27:39.070Z,81.71
2024-02-24T03:30:41.806Z,80.83
2024-02-24T03:33:44.628Z,81.96
2024-02-24T03:36:47.351Z,82.13
2024-02-24T03:39:49.816Z,83.58
2024-02-24T03:42:52.795Z,82.84
2024-02-24T03:45:55.133Z,87.36
2024-02-24T03:48:57.762Z,89.40
2024-02-24T03:52:00.125Z,92.11
2024-02-24T03:55:02.772Z,94.43
2024-02-24T03:58:05.094Z,95.07
2024-02-24T04:01:07.704Z,98.45
2024-02-24T04:04:10.419Z,99.33
2024-02-24T04:07:13.591Z,100.00
2024-02-24T04:10:16.326Z,100.00
2024-02-24T04:13:21.228Z,100.00
2024-02-24T04:16:24.196Z,100.00
2024-02-24T04:19:26.658Z,100.00
2024-02-24T04:22:29.443Z,100.00
2024-02-24T04:25:31.735Z,100.00
2024-02-24T04:28:34.404Z,100.00
2024-02-24T04:31:36.875Z,100.00
2024-02-24T04:34:39.583Z,100.00
2024-02-24T04:37:42.226Z,100.00
2024-02-24T04:40:44.847Z,100.00
2024-02-24T04:43:47.192Z,100.00
2024-02-24T04:46:50.185Z,100.00
2024-02-24T04:49:53.120Z,100.00
2024-02-24T04:52:56.286Z,100.00
2024-02-24T04:55:58.583Z,100.00
2024-02-24T04:59:01.345Z,100.00
2024-02-24T05:02:03.832Z,100.00
2024-02-24T05:05:07.063Z,100.00
2024-02-24T05:08:09.958Z,100.00
2024-02-24T05:11:12.653Z,100.00
2024-02-24T05:14:18.528Z,100.00
2024-02-24T05:17:23.750Z,100.00
2024-02-24T05:20:26.207Z,100.00
2024-02-24T05:23:29.333Z,100.00
2024-02-24T05:26:31.728Z,100.00
2024-02-24T05:29:35.120Z,100.00
2024-02-24T05:32:37.598Z,100.00
2024-02-24T05:35:40.432Z,100.00
2024-02-24T05:38:43.467Z,100.00
2024-02-24T05:41:47.999Z,100.00
2024-02-24T05:44:50.892Z,100.00
2024-02-24T05:47:53.697Z,100.00
2024-02-24T05:50:56.382Z,100.00
2024-02-24T05:53:59.901Z,100.00
2024-02-24T05:57:05.789Z,100.00
2024-02-24T06:00:12.289Z,100.00
2024-02-24T06:03:15.301Z,100.00
2024-02-24T06:06:17.943Z,100.00
2024-02-24T06:09:20.672Z,100.00
2024-02-24T06:12:25.671Z,100.00
2024-02-24T06:15:29.024Z,100.00
2024-02-24T06:18:31.830Z,100.00
2024-02-24T06:21:34.843Z,100.00
2024-02-24T06:24:37.221Z,100.00
2024-02-24T06:27:40.249Z,100.00
2024-02-24T06:30:42.952Z,100.00
2024-02-24T06:33:45.772Z,100.00
2024-02-24T06:36:48.296Z,100.00
2024-02-24T06:39:51.280Z,100.00
2024-02-24T06:42:53.705Z,100.00
2024-02-24T06:45:56.353Z,100.00
2024-02-24T06:48:59.363Z,100.00
2024-02-24T06:52:04.574Z,100.00
2024-02-24T06:55:07.350Z,100.00
2024-02-24T06:58:10.078Z,100.00
2024-02-24T07:01:12.625Z,100.00
2024-02-24T07:04:18.219Z,100.00
2024-02-24T07:07:20.930Z,100.00
2024-02-24T07:10:23.567Z,100.00
2024-02-24T07:13:25.891Z,100.00
2024-02-24T07:16:29.064Z,100.00
2024-02-24T07:19:31.438Z,100.00
2024-02-24T07:22:34.012Z,100.00
2024-02-24T07:25:36.464Z,100.00
2024-02-24T07:28:41.226Z,100.00
2024-02-24T07:31:43.754Z,100.00
2024-02-24T07:34:46.823Z,100.00
2024-02-24T07:37:50.245Z,100.00
2024-02-24T07:40:53.144Z,99.19
2024-02-24T07:43:55.623Z,98.29
2024-02-24T07:46:58.212Z,97.54
2024-02-24T07:50:00.702Z,98.19
2024-02-24T07:53:04.803Z,97.78
2024-02-24T07:56:07.376Z,96.82
2024-02-24T07:59:10.228Z,96.18
2024-02-24T08:02:12.663Z,95.73
2024-02-24T08:05:15.420Z,95.40
2024-02-24T08:08:17.885Z,94.49
2024-02-24T08:11:20.714Z,95.26
2024-02-24T08:14:23.176Z,95.74
2024-02-24T08:17:25.930Z,94.41
2024-02-24T08:20:28.712Z,90.01
2024-02-24T08:23:31.343Z,86.39
2024-02-24T08:26:36.159Z,84.15
2024-02-24T08:29:38.982Z,82.50
2024-02-24T08:32:41.358Z,85.26
2024-02-24T08:35:44.810Z,86.28
2024-02-24T08:38:47.446Z,86.94
2024-02-24T08:41:50.255Z,86.91
2024-02-24T08:44:52.773Z,88.31
2024-02-24T08:47:55.511Z,85.11
2024-02-24T08:50:58.049Z,83.21
2024-02-24T08:54:00.824Z,82.11
2024-02-24T08:57:03.530Z,80.44
2024-02-24T09:00:06.960Z,80.28
2024-02-24T09:03:09.496Z,76.72
2024-02-24T09:06:12.531Z,76.85
2024-02-24T09:09:17.189Z,74.24
2024-02-24T09:12:19.918Z,74.58
2024-02-24T09:15:22.279Z,72.48
2024-02-24T09:18:26.947Z,73.35
2024-02-24T09:21:29.766Z,73.78
2024-02-24T09:24:32.428Z,73.80
2024-02-24T09:27:34.854Z,74.64
2024-02-24T09:30:38.003Z,73.34
2024-02-24T09:33:40.557Z,72.82
2024-02-24T09:36:43.796Z,72.39
2024-02-24T09:39:46.499Z,71.91
2024-02-24T09:42:49.222Z,72.71
2024-02-24T09:45:52.568Z,70.02
2024-02-24T09:48:56.241Z,69.09
2024-02-24T09:51:59.879Z,70.96
2024-02-24T09:55:04.470Z,69.28
2024-02-24T09:58:12.273Z,69.01
2024-02-24T10:01:15.021Z,69.47
2024-02-24T10:04:19.005Z,67.27
2024-02-24T10:09:05.973Z,69.83
2024-02-24T10:12:09.380Z,68.79
2024-02-24T10:15:15.452Z,70.20
2024-02-24T10:18:21.525Z,70.62
2024-02-24T10:21:24.589Z,69.97
2024-02-24T10:24:27.300Z,69.70
2024-02-24T10:27:30.921Z,69.96
2024-02-24T10:30:33.603Z,70.77
2024-02-24T10:33:38.628Z,70.85
2024-02-24T10:36:42.725Z,70.68
2024-02-24T10:39:47.003Z,69.49
2024-02-24T10:42:50.750Z,68.50
2024-02-24T10:45:53.021Z,70.05
2024-02-24T10:48:56.016Z,69.42
2024-02-24T10:51:59.096Z,67.60
2024-02-24T10:55:03.528Z,66.44
2024-02-24T10:58:06.556Z,67.21
2024-02-24T11:01:11.070Z,65.35
2024-02-24T11:04:16.784Z,66.67
2024-02-24T11:07:24.129Z,64.09
2024-02-24T11:10:33.597Z,63.83
2024-02-24T11:13:36.576Z,63.28
2024-02-24T11:16:40.290Z,63.54
2024-02-24T11:19:49.417Z,65.26
2024-02-24T11:23:35.003Z,66.43
2024-02-24T11:26:38.896Z,65.22
2024-02-24T11:29:41.606Z,67.34
2024-02-24T11:32:47.304Z,66.55
2024-02-24T11:35:54.990Z,67.47
2024-02-24T11:38:59.041Z,65.58
2024-02-24T11:42:05.825Z,65.74
2024-02-24T11:45:09.638Z,67.97
2024-02-24T11:48:12.191Z,67.19
2024-02-24T11:51:15.176Z,67.42
2024-02-24T11:54:18.192Z,68.22
2024-02-24T11:57:21.446Z,68.18
2024-02-24T12:00:24.082Z,67.93
2024-02-24T12:03:26.679Z,67.40
2024-02-24T12:06:32.011Z,66.75
2024-02-24T12:09:34.983Z,67.38
2024-02-24T12:12:38.004Z,68.49
2024-02-24T12:15:42.457Z,68.20
2024-02-24T12:18:47.134Z,68.42
2024-02-24T12:21:50.286Z,67.40
2024-02-24T12:24:52.679Z,67.53
2024-02-24T12:27:56.827Z,67.84
2024-02-24T12:30:59.244Z,67.60
2024-02-24T12:34:02.230Z,68.00
2024-02-24T12:37:04.892Z,67.74
2024-02-24T12:40:08.747Z,67.47
2024-02-24T12:43:12.230Z,66.69
2024-02-24T12:46:15.729Z,65.66
2024-02-24T12:49:18.336Z,64.95
2024-02-24T12:52:21.414Z,67.09
2024-02-24T12:55:23.908Z,66.58
2024-02-24T12:58:27.275Z,67.12
2024-02-24T13:01:29.692Z,66.73
2024-02-24T13:04:32.811Z,66.38
2024-02-24T13:07:35.414Z,66.08
2024-02-24T13:10:38.194Z,65.78
2024-02-24T13:13:40.688Z,66.03
2024-02-24T13:16:43.350Z,65.68
2024-02-24T13:19:45.679Z,66.95
2024-02-24T13:22:48.832Z,65.92
2024-02-24T13:25:51.224Z,65.80
2024-02-24T13:28:55.958Z,66.49
2024-02-24T13:31:58.930Z,65.88
2024-02-24T13:35:01.719Z,66.37
2024-02-24T13:38:04.277Z,66.77
2024-02-24T13:41:07.081Z,66.11
2024-02-24T13:44:13.716Z,65.83
2024-02-24T13:47:17.367Z,65.83
2024-02-24T13:50:21.266Z,64.29
2024-02-24T13:53:24.039Z,64.05
2024-02-24T13:56:26.967Z,63.07
2024-02-24T13:59:29.656Z,63.09
2024-02-24T14:02:32.081Z,63.25
2024-02-24T14:05:35.085Z,62.95
2024-02-24T14:08:37.954Z,63.21
2024-02-24T14:11:41.037Z,63.34
2024-02-24T14:14:43.668Z,61.72
2024-02-24T14:17:46.639Z,60.95
2024-02-24T14:20:49.376Z,61.39
2024-02-24T14:23:52.945Z,61.59
2024-02-24T14:26:56.040Z,61.65
2024-02-24T14:30:00.667Z,61.00
2024-02-24T14:33:03.205Z,61.10
2024-02-24T14:36:06.231Z,60.92
2024-02-24T14:39:10.838Z,60.49
2024-02-24T14:42:13.764Z,60.99
2024-02-24T14:45:16.220Z,59.82
2024-02-24T14:48:18.976Z,60.70
2024-02-24T14:51:21.641Z,60.71
2024-02-24T14:54:24.814Z,60.09
2024-02-24T14:57:27.265Z,60.10
2024-02-24T15:00:29.965Z,60.07
2024-02-24T15:03:37.777Z,59.51
2024-02-24T15:06:45.533Z,59.69
2024-02-24T15:09:50.103Z,60.22
2024-02-24T15:12:52.895Z,61.05
2024-02-24T15:15:55.288Z,60.73
2024-02-24T15:18:58.126Z,60.85
2024-02-24T15:22:00.658Z,61.06
2024-02-24T15:25:03.677Z,61.39
2024-02-24T15:28:06.759Z,61.67
2024-02-24T15:31:09.640Z,61.22
2024-02-24T15:34:12.109Z,61.53
2024-02-24T15:37:14.736Z,61.62
2024-02-24T15:40:17.973Z,61.27
2024-02-24T15:43:22.066Z,61.56
2024-02-24T15:46:27.659Z,61.78
2024-02-24T15:49:30.823Z,61.46
2024-02-24T15:52:33.216Z,62.08
2024-02-24T15:55:35.891Z,62.69
2024-02-24T15:58:38.584Z,62.63
2024-02-24T16:01:41.817Z,63.28
2024-02-24T16:04:45.529Z,63.74
2024-02-24T16:07:47.930Z,64.81
2024-02-24T16:10:52.356Z,65.95
2024-02-24T16:13:56.583Z,66.96
2024-02-24T16:17:02.291Z,68.46
2024-02-24T16:20:05.116Z,69.02
2024-02-24T16:23:08.488Z,70.55
2024-02-24T16:26:14.973Z,71.04
2024-02-24T16:29:17.683Z,72.15
2024-02-24T16:32:20.301Z,72.92
2024-02-24T16:35:23.131Z,73.64
2024-02-24T16:38:25.576Z,74.42
2024-02-24T16:41:32.806Z,75.13
2024-02-24T16:44:35.927Z,75.93
2024-02-24T16:47:39.692Z,76.66
2024-02-24T16:50:42.388Z,76.84
2024-02-24T16:53:45.420Z,77.06
2024-02-24T16:56:48.223Z,77.75
2024-02-24T16:59:52.152Z,77.81
2024-02-24T17:02:56.605Z,78.34
2024-02-24T17:05:59.820Z,78.27
2024-02-24T17:09:03.967Z,78.61
2024-02-24T17:12:07.423Z,78.44
2024-02-24T17:15:11.683Z,78.40
2024-02-24T17:18:18.668Z,79.08
2024-02-24T17:21:28.674Z,79.22
2024-02-24T17:27:35.976Z,79.57
2024-02-24T17:30:38.603Z,78.83
2024-02-24T17:33:44.200Z,78.73
2024-02-24T17:36:49.851Z,78.38
2024-02-24T17:39:54.283Z,78.78
2024-02-24T17:42:57.766Z,80.04
2024-02-24T17:46:00.744Z,80.10
2024-02-24T17:52:09.081Z,80.66
2024-02-24T17:55:13.325Z,81.97
2024-02-24T17:58:16.267Z,81.57
2024-02-24T18:01:22.026Z,80.81
2024-02-24T18:04:24.814Z,81.39
2024-02-24T18:07:28.078Z,81.73
2024-02-24T18:10:31.083Z,82.12
2024-02-24T18:13:33.533Z,82.23
2024-02-24T18:16:36.272Z,83.18
2024-02-24T18:19:38.793Z,84.96
2024-02-24T18:22:44.869Z,85.40
2024-02-24T18:25:47.868Z,86.18
2024-02-24T18:28:50.675Z,87.46
2024-02-24T18:31:53.244Z,87.93
2024-02-24T18:34:56.967Z,89.24
2024-02-24T18:38:00.928Z,90.96
2024-02-24T18:41:03.949Z,92.17
2024-02-24T18:44:06.634Z,94.08
2024-02-24T18:47:10.871Z,95.47
2024-02-24T18:50:13.639Z,96.10
2024-02-24T18:53:16.665Z,97.31
2024-02-24T18:56:19.454Z,98.31
2024-02-24T18:59:22.704Z,99.25
2024-02-24T19:02:25.745Z,99.43
2024-02-24T19:05:31.882Z,100.00
2024-02-24T19:08:34.744Z,100.00
2024-02-24T19:11:37.607Z,100.00
2024-02-24T19:14:48.767Z,100.00
2024-02-24T19:17:57.533Z,100.00
2024-02-24T19:21:00.189Z,100.00
2024-02-24T19:24:03.074Z,100.00
2024-02-24T19:27:05.928Z,100.00
2024-02-24T19:30:09.867Z,100.00
2024-02-24T19:33:12.439Z,100.00
2024-02-24T19:36:15.178Z,100.00
2024-02-24T19:39:19.406Z,100.00
2024-02-24T19:42:22.440Z,100.00
2024-02-24T19:45:24.983Z,100.00
2024-02-24T19:48:27.653Z,100.00
2024-02-24T19:51:30.496Z,100.00
2024-02-24T19:54:33.169Z,100.00
2024-02-24T19:57:36.174Z,100.00
2024-02-24T20:00:39.446Z,100.00
2024-02-24T20:03:41.926Z,99.70
2024-02-24T20:06:44.561Z,100.00
2024-02-24T20:09:47.018Z,100.00
2024-02-24T20:12:49.321Z,100.00
2024-02-24T20:15:51.907Z,100.00
2024-02-24T20:18:54.394Z,100.00
2024-02-24T20:21:57.113Z,100.00
2024-02-24T20:24:59.643Z,100.00
2024-02-24T20:28:04.730Z,100.00
2024-02-24T20:31:07.103Z,100.00
2024-02-24T20:34:09.946Z,100.00
2024-02-24T20:37:12.476Z,100.00
2024-02-24T20:40:15.161Z,100.00
2024-02-24T20:43:17.368Z,100.00
2024-02-24T20:46:22.602Z,100.00
2024-02-24T20:49:25.968Z,100.00
2024-02-24T20:52:29.909Z,100.00
2024-02-24T20:55:32.659Z,100.00
2024-02-24T20:58:37.311Z,100.00
2024-02-24T21:01:39.932Z,100.00
2024-02-24T21:04:42.874Z,100.00
2024-02-24T21:07:45.536Z,100.00
2024-02-24T21:10:47.886Z,99.44
2024-02-24T21:13:50.191Z,99.04
2024-02-24T21:16:52.534Z,98.74
2024-02-24T21:19:55.070Z,98.48
2024-02-24T21:22:57.475Z,97.85
2024-02-24T21:25:59.652Z,98.14
2024-02-24T21:29:02.445Z,97.49
2024-02-24T21:32:05.181Z,97.21
2024-02-24T21:35:07.943Z,97.56
2024-02-24T21:38:10.295Z,97.39
2024-02-24T21:41:19.497Z,97.63
2024-02-24T21:44:21.986Z,97.48
2024-02-24T21:47:24.447Z,97.60
2024-02-24T21:50:26.724Z,97.30
2024-02-24T21:53:30.483Z,97.64
2024-02-24T21:56:35.115Z,97.78
2024-02-24T21:59:37.774Z,97.96
2024-02-24T22:02:40.184Z,98.40
2024-02-24T22:05:43.023Z,98.64
2024-02-24T22:08:45.369Z,98.45
2024-02-24T22:11:48.199Z,98.20
2024-02-24T22:14:50.709Z,98.67
2024-02-24T22:17:53.437Z,98.93
2024-02-24T22:20:56.512Z,99.48
2024-02-24T22:23:59.427Z,99.63
2024-02-24T22:27:02.043Z,99.92
2024-02-24T22:30:13.215Z,100.00
2024-02-24T22:33:18.998Z,100.00
2024-02-24T22:36:24.052Z,100.00
2024-02-24T22:39:27.183Z,100.00
2024-02-24T22:42:30.621Z,100.00
2024-02-24T22:45:32.925Z,100.00
2024-02-24T22:48:35.768Z,100.00
2024-02-24T22:51:38.237Z,100.00
2024-02-24T22:54:40.744Z,100.00
2024-02-24T22:57:43.242Z,100.00
2024-02-24T23:00:48.898Z,100.00
2024-02-24T23:03:51.270Z,100.00
2024-02-24T23:06:54.233Z,100.00
2024-02-24T23:09:56.662Z,100.00
2024-02-24T23:12:59.304Z,100.00
2024-02-24T23:16:01.701Z,100.00
2024-02-24T23:19:04.668Z,100.00
2024-02-24T23:22:07.709Z,100.00
2024-02-24T23:25:10.417Z,100.00
2024-02-24T23:28:15.238Z,100.00
2024-02-24T23:31:17.795Z,100.00
2024-02-24T23:34:20.271Z,100.00
2024-02-24T23:37:23.410Z,100.00
2024-02-24T23:40:25.706Z,100.00
2024-02-24T23:43:28.390Z,100.00
2024-02-24T23:46:30.817Z,100.00
2024-02-24T23:49:33.633Z,100.00
2024-02-24T23:52:35.957Z,100.00
2024-02-24T23:55:38.652Z,100.00
2024-02-24T23:58:41.043Z,100.00
